Time;durP1;ratioP1;P1;durP2;ratioP2;P2;SDS_P1;SDS_P2;PMS_P1;PMS_P2;Temp;Humidity;BMP_temperature;BMP_pressure;BME280_temperature;BME280_humidity;BME280_pressure;Samples;Min_cycle;Max_cycle;Signal;HPM_P1;HPM_P2
2021/11/16 00:00:17;;;;;;;46.88;19.30;;;;;;;;;;5034982;28;20082;-89
2021/11/16 00:02:42;;;;;;;39.00;17.97;;;;;;;;;;5033785;28;20388;-89
2021/11/16 00:05:08;;;;;;;48.77;18.10;;;;;;;;;;5033644;28;20072;-89
2021/11/16 00:07:34;;;;;;;49.25;19.15;;;;;;;;;;5033796;28;20707;-89
2021/11/16 00:09:59;;;;;;;48.87;19.73;;;;;;;;;;5033856;28;20124;-89
2021/11/16 00:12:24;;;;;;;43.73;18.17;;;;;;;;;;5033318;28;20091;-88
2021/11/16 00:14:50;;;;;;;52.17;18.77;;;;;;;;;;5034783;28;20432;-89
2021/11/16 00:17:15;;;;;;;47.43;18.27;;;;;;;;;;5033237;28;20023;-89
2021/11/16 00:19:42;;;;;;;53.47;19.43;;;;;;;;;;5033371;28;20056;-89
2021/11/16 00:22:09;;;;;;;52.50;19.83;;;;;;;;;;5038411;28;20037;-89
2021/11/16 00:24:38;;;;;;;46.47;18.90;;;;;;;;;;5030869;28;20141;-89
2021/11/16 00:27:07;;;;;;;48.80;19.20;;;;;;;;;;5056086;28;20491;-89
2021/11/16 00:29:33;;;;;;;52.70;20.37;;;;;;;;;;5032870;28;20030;-89
2021/11/16 00:31:58;;;;;;;53.73;20.93;;;;;;;;;;5033234;28;20373;-89
2021/11/16 00:34:23;;;;;;;52.30;20.30;;;;;;;;;;5034703;28;20016;-89
2021/11/16 00:36:49;;;;;;;49.93;18.53;;;;;;;;;;5033084;28;20013;-89
2021/11/16 00:39:14;;;;;;;64.00;21.27;;;;;;;;;;5033176;28;20025;-89
2021/11/16 00:41:39;;;;;;;54.33;20.33;;;;;;;;;;5032884;28;20025;-89
2021/11/16 00:44:04;;;;;;;47.73;18.23;;;;;;;;;;5034369;28;20406;-89
2021/11/16 00:46:30;;;;;;;50.53;19.03;;;;;;;;;;5033077;28;20033;-89
2021/11/16 00:48:55;;;;;;;55.33;19.50;;;;;;;;;;5033171;28;20022;-90
2021/11/16 00:51:20;;;;;;;54.13;20.77;;;;;;;;;;5038571;28;20026;-89
2021/11/16 00:53:45;;;;;;;53.03;19.97;;;;;;;;;;5032728;28;20052;-89
2021/11/16 00:56:11;;;;;;;47.90;20.37;;;;;;;;;;5032753;28;20547;-89
2021/11/16 00:58:37;;;;;;;53.20;19.57;;;;;;;;;;5032726;28;20021;-89
2021/11/16 01:01:03;;;;;;;53.57;21.70;;;;;;;;;;5032451;28;20258;-88
2021/11/16 01:03:28;;;;;;;54.83;22.00;;;;;;;;;;5032627;28;20083;-89
2021/11/16 01:05:54;;;;;;;55.03;20.53;;;;;;;;;;5033836;28;20025;-89
2021/11/16 01:08:20;;;;;;;55.43;22.37;;;;;;;;;;5032816;28;20017;-89
2021/11/16 01:10:45;;;;;;;63.43;23.37;;;;;;;;;;5033415;28;20576;-89
2021/11/16 01:13:11;;;;;;;56.73;22.90;;;;;;;;;;5032166;28;20026;-88
2021/11/16 01:15:37;;;;;;;62.23;24.53;;;;;;;;;;5033301;28;20453;-89
2021/11/16 01:18:03;;;;;;;62.10;24.50;;;;;;;;;;5040483;28;20020;-89
2021/11/16 01:20:29;;;;;;;66.55;25.73;;;;;;;;;;5052173;28;20475;-88
2021/11/16 01:22:55;;;;;;;64.30;23.53;;;;;;;;;;5052254;28;20075;-89
2021/11/16 01:25:21;;;;;;;59.73;23.07;;;;;;;;;;5050228;28;20107;-89
2021/11/16 01:27:47;;;;;;;67.27;24.70;;;;;;;;;;5040427;28;20029;-89
2021/11/16 01:30:14;;;;;;;65.97;24.37;;;;;;;;;;5043623;28;20033;-88
2021/11/16 01:32:43;;;;;;;69.47;24.30;;;;;;;;;;5052208;28;20415;-89
2021/11/16 01:35:09;;;;;;;59.87;22.83;;;;;;;;;;5052279;28;20422;-89
2021/11/16 01:37:35;;;;;;;63.95;24.65;;;;;;;;;;5052089;28;20021;-90
2021/11/16 01:40:01;;;;;;;62.17;23.10;;;;;;;;;;5041759;28;20095;-88
2021/11/16 01:42:26;;;;;;;67.07;25.97;;;;;;;;;;5048568;28;20111;-89
2021/11/16 01:44:51;;;;;;;63.97;24.23;;;;;;;;;;5042976;28;20426;-89
2021/11/16 01:47:17;;;;;;;67.60;24.73;;;;;;;;;;5046717;28;20033;-89
2021/11/16 01:49:43;;;;;;;69.13;24.23;;;;;;;;;;5052164;28;20076;-89
2021/11/16 01:52:08;;;;;;;66.63;23.90;;;;;;;;;;5051850;28;20044;-89
2021/11/16 01:54:34;;;;;;;62.27;24.17;;;;;;;;;;5052972;28;20013;-89
2021/11/16 01:57:00;;;;;;;67.03;25.33;;;;;;;;;;5041891;28;20037;-90
2021/11/16 01:59:25;;;;;;;68.77;25.57;;;;;;;;;;5045997;28;20112;-89
2021/11/16 02:01:51;;;;;;;70.77;25.53;;;;;;;;;;5040003;28;20107;-89
2021/11/16 02:04:17;;;;;;;72.00;26.00;;;;;;;;;;5052083;28;20017;-89
2021/11/16 02:06:43;;;;;;;73.13;26.03;;;;;;;;;;5051049;28;20098;-89
2021/11/16 02:09:10;;;;;;;76.43;26.53;;;;;;;;;;5054243;28;20032;-89
2021/11/16 02:11:36;;;;;;;72.37;24.27;;;;;;;;;;5051765;28;20025;-89
2021/11/16 02:14:02;;;;;;;76.63;28.13;;;;;;;;;;5045848;28;20457;-89
2021/11/16 02:16:28;;;;;;;76.87;26.20;;;;;;;;;;5053696;28;20146;-89
2021/11/16 02:18:53;;;;;;;64.70;24.47;;;;;;;;;;5043810;28;20025;-89
2021/11/16 02:21:19;;;;;;;75.93;25.83;;;;;;;;;;5056475;28;20021;-88
2021/11/16 02:23:45;;;;;;;67.47;26.00;;;;;;;;;;5035844;28;20018;-89
2021/11/16 02:26:11;;;;;;;69.53;25.37;;;;;;;;;;5046930;28;20025;-89
2021/11/16 02:28:36;;;;;;;70.30;25.37;;;;;;;;;;5056560;28;20021;-89
2021/11/16 02:31:02;;;;;;;67.70;26.03;;;;;;;;;;5055639;28;20124;-89
2021/11/16 02:33:28;;;;;;;66.17;25.13;;;;;;;;;;5055304;28;20032;-89
2021/11/16 02:35:54;;;;;;;62.93;24.60;;;;;;;;;;5055662;28;20057;-89
2021/11/16 02:38:19;;;;;;;67.40;25.13;;;;;;;;;;5042179;28;20072;-89
2021/11/16 02:40:45;;;;;;;68.60;25.37;;;;;;;;;;5054416;28;20504;-89
2021/11/16 02:43:10;;;;;;;67.27;24.80;;;;;;;;;;5056799;28;20112;-89
2021/11/16 02:45:35;;;;;;;70.90;26.10;;;;;;;;;;5048732;28;20037;-89
2021/11/16 02:48:11;;;;;;;76.67;27.63;;;;;;;;;;5044219;28;20469;-89
2021/11/16 02:50:36;;;;;;;68.00;25.53;;;;;;;;;;5041087;28;20041;-89
2021/11/16 02:53:02;;;;;;;66.73;25.00;;;;;;;;;;5055133;28;20377;-89
2021/11/16 02:55:27;;;;;;;74.87;26.27;;;;;;;;;;5055218;28;20464;-88
2021/11/16 02:57:52;;;;;;;72.07;26.87;;;;;;;;;;5055247;28;20021;-89
2021/11/16 03:00:17;;;;;;;70.00;25.57;;;;;;;;;;5054753;28;20028;-89
2021/11/16 03:02:45;;;;;;;72.10;25.53;;;;;;;;;;5054757;28;20028;-89
2021/11/16 03:05:10;;;;;;;71.90;26.03;;;;;;;;;;5052898;28;20383;-89
2021/11/16 03:07:40;;;;;;;72.97;24.43;;;;;;;;;;5084062;28;20111;-89
2021/11/16 03:10:06;;;;;;;67.90;25.40;;;;;;;;;;5046265;28;20036;-89
2021/11/16 03:12:31;;;;;;;68.97;25.47;;;;;;;;;;5049573;28;20029;-89
2021/11/16 03:14:57;;;;;;;70.77;25.80;;;;;;;;;;5054808;28;20417;-89
2021/11/16 03:17:23;;;;;;;67.53;25.83;;;;;;;;;;5044683;28;20025;-89
2021/11/16 03:19:49;;;;;;;69.87;25.13;;;;;;;;;;5054047;28;20464;-89
2021/11/16 03:22:16;;;;;;;69.83;28.27;;;;;;;;;;5054637;28;20050;-89
2021/11/16 03:24:42;;;;;;;70.53;26.00;;;;;;;;;;5054297;28;20075;-88
2021/11/16 03:27:13;;;;;;;75.60;26.07;;;;;;;;;;5040384;28;20033;-89
2021/11/16 03:29:44;;;;;;;80.40;26.55;;;;;;;;;;5043863;28;20028;-89
2021/11/16 03:32:13;;;;;;;70.90;25.27;;;;;;;;;;5052645;28;20436;-89
2021/11/16 03:34:41;;;;;;;71.87;26.27;;;;;;;;;;5043593;28;20017;-89
2021/11/16 03:37:06;;;;;;;65.30;26.00;;;;;;;;;;5048280;28;20025;-89
2021/11/16 03:39:32;;;;;;;64.53;25.73;;;;;;;;;;5054244;28;20032;-89
2021/11/16 03:41:57;;;;;;;67.17;25.07;;;;;;;;;;5053936;28;20017;-89
2021/11/16 03:44:23;;;;;;;71.70;26.00;;;;;;;;;;5054011;28;20487;-89
2021/11/16 03:46:49;;;;;;;69.47;26.00;;;;;;;;;;5053980;28;20013;-89
2021/11/16 03:49:14;;;;;;;64.20;26.07;;;;;;;;;;5049090;28;20080;-89
2021/11/16 03:51:41;;;;;;;69.57;25.23;;;;;;;;;;5045247;28;20051;-89
2021/11/16 03:54:07;;;;;;;65.43;25.03;;;;;;;;;;5053754;28;20063;-89
2021/11/16 03:56:32;;;;;;;72.37;24.97;;;;;;;;;;5054538;28;20017;-89
2021/11/16 03:58:58;;;;;;;68.43;24.83;;;;;;;;;;5049447;28;20017;-89
2021/11/16 04:01:23;;;;;;;78.30;27.20;;;;;;;;;;5041803;28;20418;-89
2021/11/16 04:03:49;;;;;;;70.63;25.10;;;;;;;;;;5053841;28;20445;-89
2021/11/16 04:06:15;;;;;;;74.53;25.57;;;;;;;;;;5053229;28;20036;-89
2021/11/16 04:08:41;;;;;;;68.03;25.13;;;;;;;;;;5043818;28;20100;-89
2021/11/16 04:11:06;;;;;;;68.47;25.57;;;;;;;;;;5047350;28;20421;-90
2021/11/16 04:13:31;;;;;;;65.23;23.47;;;;;;;;;;5035913;28;20018;-89
2021/11/16 04:15:57;;;;;;;67.97;25.60;;;;;;;;;;5081140;28;20024;-89
2021/11/16 04:18:23;;;;;;;67.63;24.90;;;;;;;;;;5040423;28;20028;-89
2021/11/16 04:20:49;;;;;;;72.33;25.57;;;;;;;;;;5053604;28;20028;-89
2021/11/16 04:23:15;;;;;;;73.97;25.77;;;;;;;;;;5053357;28;20443;-89
2021/11/16 04:25:42;;;;;;;72.50;25.87;;;;;;;;;;5053330;28;20373;-89
2021/11/16 04:28:08;;;;;;;66.93;25.57;;;;;;;;;;5053553;28;20105;-89
2021/11/16 04:30:33;;;;;;;73.27;27.13;;;;;;;;;;5052157;28;20116;-89
2021/11/16 04:32:59;;;;;;;64.20;25.27;;;;;;;;;;5052782;28;20025;-87
2021/11/16 04:35:25;;;;;;;67.97;25.50;;;;;;;;;;5052888;28;20032;-89
2021/11/16 04:37:51;;;;;;;65.07;24.17;;;;;;;;;;5052954;28;20476;-89
2021/11/16 04:40:19;;;;;;;69.33;26.17;;;;;;;;;;5040076;28;20060;-89
2021/11/16 04:42:44;;;;;;;72.17;27.53;;;;;;;;;;5045504;28;20381;-90
2021/11/16 04:45:12;;;;;;;73.30;26.73;;;;;;;;;;5033124;28;20030;-89
2021/11/16 04:47:47;;;;;;;86.03;28.87;;;;;;;;;;5046801;28;20496;-89
2021/11/16 04:50:23;;;;;;;75.73;27.97;;;;;;;;;;5045860;28;20406;-89
2021/11/16 04:55:33;;;;;;;71.13;25.23;;;;;;;;;;5048363;28;20021;-89
2021/11/16 05:03:47;;;;;;;72.37;25.57;;;;;;;;;;5041623;28;20063;-90
2021/11/16 05:06:12;;;;;;;65.17;24.40;;;;;;;;;;5052260;28;20060;-89
2021/11/16 05:08:39;;;;;;;71.27;26.03;;;;;;;;;;5047101;28;20029;-87
2021/11/16 05:11:04;;;;;;;75.13;25.03;;;;;;;;;;5052417;28;20480;-89
2021/11/16 05:13:30;;;;;;;75.30;26.13;;;;;;;;;;5052629;28;20020;-89
2021/11/16 05:15:55;;;;;;;71.30;26.10;;;;;;;;;;5052576;28;20463;-90
2021/11/16 05:18:20;;;;;;;67.67;25.00;;;;;;;;;;5052429;28;20027;-89
2021/11/16 05:20:45;;;;;;;71.13;25.07;;;;;;;;;;5052494;28;20025;-89
2021/11/16 05:23:12;;;;;;;62.30;23.73;;;;;;;;;;5052135;28;20021;-90
2021/11/16 05:25:37;;;;;;;67.43;23.80;;;;;;;;;;5052467;28;20021;-88
2021/11/16 05:28:05;;;;;;;75.37;26.63;;;;;;;;;;5049945;28;20029;-89
2021/11/16 05:30:30;;;;;;;75.40;25.53;;;;;;;;;;5033306;28;20025;-89
2021/11/16 05:32:56;;;;;;;68.47;25.87;;;;;;;;;;5043039;28;20052;-89
2021/11/16 05:35:21;;;;;;;66.97;25.67;;;;;;;;;;5049175;28;20032;-89
2021/11/16 05:37:46;;;;;;;70.33;24.87;;;;;;;;;;5041140;28;20100;-89
2021/11/16 05:40:12;;;;;;;72.87;25.47;;;;;;;;;;5051306;28;20029;-89
2021/11/16 05:42:37;;;;;;;75.67;25.97;;;;;;;;;;5033353;28;20083;-89
2021/11/16 05:45:04;;;;;;;58.63;23.10;;;;;;;;;;5044669;28;20063;-90
2021/11/16 05:47:29;;;;;;;71.40;26.07;;;;;;;;;;5051372;28;20472;-89
2021/11/16 05:49:54;;;;;;;68.87;25.20;;;;;;;;;;5052045;28;20028;-89
2021/11/16 05:52:20;;;;;;;74.27;25.83;;;;;;;;;;5038078;28;20420;-89
2021/11/16 05:54:45;;;;;;;69.10;25.00;;;;;;;;;;5052158;28;20579;-89
2021/11/16 05:57:10;;;;;;;76.60;26.67;;;;;;;;;;5051709;28;20111;-89
2021/11/16 05:59:36;;;;;;;68.07;24.30;;;;;;;;;;5052060;28;20018;-90
2021/11/16 06:02:06;;;;;;;66.17;24.10;;;;;;;;;;5038764;28;20021;-89
2021/11/16 06:04:33;;;;;;;71.73;26.13;;;;;;;;;;5050680;28;20499;-88
2021/11/16 06:06:58;;;;;;;64.00;24.37;;;;;;;;;;5051801;28;20029;-90
2021/11/16 06:09:26;;;;;;;70.93;25.80;;;;;;;;;;5048897;28;20047;-89
2021/11/16 06:11:51;;;;;;;67.00;26.03;;;;;;;;;;5041300;28;20465;-89
2021/11/16 06:14:16;;;;;;;69.10;24.57;;;;;;;;;;5050633;28;20108;-89
2021/11/16 06:16:42;;;;;;;66.70;24.73;;;;;;;;;;5038762;28;20013;-89
2021/11/16 06:19:07;;;;;;;57.53;22.63;;;;;;;;;;5051944;28;20017;-89
2021/11/16 06:21:33;;;;;;;61.60;22.60;;;;;;;;;;5047854;28;20053;-89
2021/11/16 06:23:59;;;;;;;58.77;23.17;;;;;;;;;;5040681;28;20025;-88
2021/11/16 06:26:25;;;;;;;66.10;24.33;;;;;;;;;;5046005;28;20028;-89
2021/11/16 06:28:51;;;;;;;63.77;23.57;;;;;;;;;;5051601;28;20020;-89
2021/11/16 06:31:20;;;;;;;76.30;25.03;;;;;;;;;;5051459;28;20025;-89
2021/11/16 06:33:45;;;;;;;69.63;24.57;;;;;;;;;;5051551;28;20013;-89
2021/11/16 06:36:11;;;;;;;67.97;25.33;;;;;;;;;;5051692;28;20017;-90
2021/11/16 06:38:36;;;;;;;60.00;22.13;;;;;;;;;;5037499;28;20022;-89
2021/11/16 06:41:01;;;;;;;62.20;23.30;;;;;;;;;;5047523;28;20033;-90
2021/11/16 06:43:28;;;;;;;70.50;25.03;;;;;;;;;;5045026;28;20017;-89
2021/11/16 06:45:55;;;;;;;68.20;23.83;;;;;;;;;;5051415;28;20031;-89
2021/11/16 06:48:20;;;;;;;70.33;24.03;;;;;;;;;;5051707;28;20017;-89
2021/11/16 06:50:46;;;;;;;74.63;25.27;;;;;;;;;;5052712;28;20017;-89
2021/11/16 06:53:12;;;;;;;70.37;25.23;;;;;;;;;;5051735;28;20108;-89
2021/11/16 06:55:37;;;;;;;71.13;24.80;;;;;;;;;;5053776;28;20067;-89
2021/11/16 06:58:03;;;;;;;68.17;23.17;;;;;;;;;;5042431;28;20032;-89
2021/11/16 07:00:32;;;;;;;67.37;24.70;;;;;;;;;;5066862;28;20392;-89
2021/11/16 07:02:57;;;;;;;65.37;23.43;;;;;;;;;;5040561;28;20017;-88
2021/11/16 07:05:24;;;;;;;64.93;23.77;;;;;;;;;;5031312;28;20045;-89
2021/11/16 07:07:49;;;;;;;79.50;25.83;;;;;;;;;;5070158;28;20025;-89
2021/11/16 07:10:19;;;;;;;70.77;25.23;;;;;;;;;;5054558;28;20021;-89
2021/11/16 07:12:46;;;;;;;63.92;23.95;;;;;;;;;;5054977;28;20464;-91
2021/11/16 07:15:12;;;;;;;65.83;25.77;;;;;;;;;;5054847;28;20052;-89
2021/11/16 07:17:38;;;;;;;67.17;23.27;;;;;;;;;;5053883;28;20013;-89
2021/11/16 07:20:03;;;;;;;65.20;23.07;;;;;;;;;;5044523;28;20404;-89
2021/11/16 07:22:30;;;;;;;67.60;23.73;;;;;;;;;;5047209;28;20028;-89
2021/11/16 07:25:01;;;;;;;65.60;24.73;;;;;;;;;;5050294;28;20025;-89
2021/11/16 07:27:31;;;;;;;70.30;24.92;;;;;;;;;;5040857;28;20027;-89
2021/11/16 07:29:58;;;;;;;71.00;25.67;;;;;;;;;;5048517;28;20481;-88
2021/11/16 07:32:26;;;;;;;67.80;23.63;;;;;;;;;;5054515;28;20128;-89
2021/11/16 07:34:55;;;;;;;64.50;22.97;;;;;;;;;;5054401;28;20013;-89
2021/11/16 07:37:23;;;;;;;62.80;23.33;;;;;;;;;;5053888;28;20020;-88
2021/11/16 07:39:55;;;;;;;73.90;24.40;;;;;;;;;;5054094;28;20059;-89
2021/11/16 07:42:21;;;;;;;67.70;23.57;;;;;;;;;;5055378;28;20075;-89
2021/11/16 07:44:59;;;;;;;68.43;24.60;;;;;;;;;;5054154;28;20021;-89
2021/11/16 07:47:43;;;;;;;75.77;25.67;;;;;;;;;;5053910;28;20119;-89
2021/11/16 07:50:10;;;;;;;67.17;24.07;;;;;;;;;;5049475;28;20048;-89
2021/11/16 07:52:35;;;;;;;69.93;24.67;;;;;;;;;;5054274;28;20021;-89
2021/11/16 07:55:00;;;;;;;66.63;22.83;;;;;;;;;;5043812;28;20428;-89
2021/11/16 07:57:26;;;;;;;61.40;24.13;;;;;;;;;;5050616;28;20021;-90
2021/11/16 07:59:55;;;;;;;69.83;24.37;;;;;;;;;;5045283;28;20067;-89
2021/11/16 08:02:32;;;;;;;65.73;22.83;;;;;;;;;;5048911;28;20054;-89
2021/11/16 08:05:20;;;;;;;62.40;23.67;;;;;;;;;;5042279;28;20021;-89
2021/11/16 08:07:56;;;;;;;64.53;21.23;;;;;;;;;;5051246;28;20049;-90
2021/11/16 08:10:27;;;;;;;72.00;23.80;;;;;;;;;;5033672;28;20030;-89
2021/11/16 08:13:02;;;;;;;68.13;24.10;;;;;;;;;;5047751;28;20100;-89
2021/11/16 08:15:27;;;;;;;71.20;24.70;;;;;;;;;;5042818;28;20113;-89
2021/11/16 08:17:59;;;;;;;63.37;23.13;;;;;;;;;;5037419;28;20051;-89
2021/11/16 08:20:24;;;;;;;;;;;;;;;;;;5052507;28;20028;-89
2021/11/16 08:22:50;;;;;;;68.43;23.37;;;;;;;;;;5054428;28;19904;-89
2021/11/16 08:25:16;;;;;;;67.80;22.90;;;;;;;;;;5053217;28;20250;-89
2021/11/16 08:27:43;;;;;;;70.27;24.53;;;;;;;;;;5049894;28;20037;-89
2021/11/16 08:30:08;;;;;;;71.17;24.17;;;;;;;;;;5032681;28;20033;-90
2021/11/16 08:32:36;;;;;;;63.57;24.50;;;;;;;;;;5034912;28;20021;-90
2021/11/16 08:35:15;;;;;;;67.03;24.00;;;;;;;;;;5033344;28;20511;-90
2021/11/16 08:37:41;;;;;;;68.17;22.27;;;;;;;;;;5037934;28;20464;-89
2021/11/16 08:40:11;;;;;;;69.17;23.47;;;;;;;;;;5040293;28;20091;-89
2021/11/16 08:42:38;;;;;;;65.97;23.77;;;;;;;;;;5026351;28;20029;-90
2021/11/16 08:45:03;;;;;;;57.63;22.87;;;;;;;;;;5041266;28;20061;-89
2021/11/16 08:47:30;;;;;;;67.20;23.40;;;;;;;;;;5034137;28;20033;-89
2021/11/16 08:49:56;;;;;;;64.43;23.07;;;;;;;;;;5032948;28;20025;-90
2021/11/16 08:52:22;;;;;;;64.40;24.47;;;;;;;;;;5046650;28;20797;-89
2021/11/16 08:54:54;;;;;;;62.80;22.77;;;;;;;;;;5034179;28;20044;-89
2021/11/16 08:57:20;;;;;;;67.00;23.70;;;;;;;;;;5049547;28;20476;-89
2021/11/16 08:59:46;;;;;;;71.07;25.03;;;;;;;;;;5043460;28;20041;-90
2021/11/16 09:02:12;;;;;;;72.40;25.93;;;;;;;;;;5052586;28;20468;-90
2021/11/16 09:04:40;;;;;;;74.60;24.10;;;;;;;;;;5052663;28;20013;-90
2021/11/16 09:07:29;;;;;;;70.37;23.70;;;;;;;;;;5053827;28;20021;-90
2021/11/16 09:09:56;;;;;;;69.97;24.40;;;;;;;;;;5052570;28;20021;-89
2021/11/16 09:12:31;;;;;;;72.90;25.87;;;;;;;;;;5054065;28;20021;-89
2021/11/16 09:14:57;;;;;;;76.03;25.90;;;;;;;;;;5035860;28;20107;-90
2021/11/16 09:17:22;;;;;;;71.77;24.87;;;;;;;;;;5032313;28;20014;-89
2021/11/16 09:19:47;;;;;;;67.37;22.97;;;;;;;;;;5046430;28;20036;-90
2021/11/16 09:22:17;;;;;;;67.03;21.63;;;;;;;;;;5043154;28;20361;-88
2021/11/16 09:24:44;;;;;;;60.93;21.97;;;;;;;;;;5048592;28;20061;-89
2021/11/16 09:27:13;;;;;;;69.20;23.03;;;;;;;;;;5051421;28;20098;-90
2021/11/16 09:29:40;;;;;;;64.30;24.13;;;;;;;;;;5051949;28;20017;-90
2021/11/16 09:32:06;;;;;;;67.90;24.33;;;;;;;;;;5052358;28;20043;-90
2021/11/16 09:34:32;;;;;;;72.77;23.27;;;;;;;;;;5052425;28;20053;-89
2021/11/16 09:36:58;;;;;;;63.77;22.63;;;;;;;;;;5038396;28;20028;-90
2021/11/16 09:39:25;;;;;;;67.60;22.20;;;;;;;;;;5052250;28;20025;-90
2021/11/16 09:41:54;;;;;;;69.93;22.63;;;;;;;;;;5051510;28;20017;-89
2021/11/16 09:44:23;;;;;;;71.47;23.80;;;;;;;;;;5051999;28;20032;-89
2021/11/16 09:47:07;;;;;;;69.17;23.47;;;;;;;;;;5035306;28;20031;-90
2021/11/16 09:49:34;;;;;;;75.23;24.87;;;;;;;;;;5019959;28;20018;-90
2021/11/16 09:52:02;;;;;;;70.83;23.10;;;;;;;;;;5045796;28;20029;-90
2021/11/16 09:54:27;;;;;;;73.87;23.63;;;;;;;;;;5051940;28;20586;-90
2021/11/16 09:57:04;;;;;;;68.63;23.73;;;;;;;;;;5040003;28;20049;-90
2021/11/16 09:59:29;;;;;;;65.23;23.43;;;;;;;;;;5051433;28;20013;-89
2021/11/16 10:01:54;;;;;;;65.40;22.47;;;;;;;;;;5052013;28;20021;-90
2021/11/16 10:04:25;;;;;;;70.23;24.13;;;;;;;;;;5041518;28;20021;-89
2021/11/16 10:06:51;;;;;;;70.13;23.20;;;;;;;;;;5051768;28;20425;-90
2021/11/16 10:09:16;;;;;;;71.00;21.53;;;;;;;;;;5037788;28;20052;-90
2021/11/16 10:11:43;;;;;;;64.37;22.97;;;;;;;;;;5044210;28;20053;-90
2021/11/16 10:14:10;;;;;;;65.27;21.13;;;;;;;;;;5046311;28;20017;-90
2021/11/16 10:16:35;;;;;;;68.07;22.47;;;;;;;;;;5045843;28;20018;-90
2021/11/16 10:19:00;;;;;;;65.50;22.37;;;;;;;;;;5043857;28;20024;-90
2021/11/16 10:21:25;;;;;;;66.83;22.10;;;;;;;;;;5047755;28;20026;-89
2021/11/16 10:23:54;;;;;;;76.80;23.23;;;;;;;;;;5041954;28;20388;-91
2021/11/16 10:26:20;;;;;;;67.53;23.20;;;;;;;;;;5043561;28;20029;-91
2021/11/16 10:28:47;;;;;;;70.47;22.27;;;;;;;;;;5043573;28;20380;-90
2021/11/16 10:31:13;;;;;;;67.33;21.97;;;;;;;;;;5041194;28;20083;-91
2021/11/16 10:33:49;;;;;;;66.97;23.53;;;;;;;;;;5049885;28;20021;-91
2021/11/16 10:36:15;;;;;;;70.13;22.40;;;;;;;;;;5046965;28;20346;-91
2021/11/16 10:38:45;;;;;;;65.80;22.63;;;;;;;;;;5041696;28;20018;-91
2021/11/16 10:41:15;;;;;;;63.37;23.60;;;;;;;;;;5055846;28;20024;-91
2021/11/16 10:43:43;;;;;;;64.50;22.10;;;;;;;;;;5055513;28;20456;-91
2021/11/16 10:46:09;;;;;;;63.83;22.57;;;;;;;;;;5041973;28;20115;-91
2021/11/16 10:48:35;;;;;;;72.07;23.17;;;;;;;;;;5037335;28;20025;-92
2021/11/16 10:51:04;;;;;;;69.37;22.80;;;;;;;;;;5055426;28;20526;-92
2021/11/16 10:53:29;;;;;;;68.87;23.70;;;;;;;;;;5043697;28;20044;-92
2021/11/16 10:55:56;;;;;;;67.03;23.10;;;;;;;;;;5053367;28;20021;-92
2021/11/16 10:58:24;;;;;;;67.10;21.07;;;;;;;;;;5045244;28;20024;-91
2021/11/16 11:00:53;;;;;;;57.57;19.90;;;;;;;;;;5051784;28;20025;-91
2021/11/16 11:03:18;;;;;;;59.07;20.13;;;;;;;;;;5055788;28;20051;-91
2021/11/16 11:05:53;;;;;;;68.33;22.40;;;;;;;;;;5042424;28;20022;-91
2021/11/16 11:08:33;;;;;;;67.03;21.07;;;;;;;;;;5041963;28;20036;-91
2021/11/16 11:10:59;;;;;;;72.03;25.27;;;;;;;;;;5049358;28;20028;-91
2021/11/16 11:13:26;;;;;;;72.97;24.43;;;;;;;;;;5044420;28;20102;-91
2021/11/16 11:15:52;;;;;;;70.80;22.17;;;;;;;;;;5054862;28;20092;-91
2021/11/16 11:18:37;;;;;;;63.60;22.13;;;;;;;;;;5048913;28;20036;-90
2021/11/16 11:21:04;;;;;;;71.90;23.20;;;;;;;;;;5049247;28;20037;-90
2021/11/16 11:23:31;;;;;;;64.37;22.03;;;;;;;;;;5034995;28;20396;-90
2021/11/16 11:26:18;;;;;;;61.77;21.43;;;;;;;;;;5048552;28;20029;-91
2021/11/16 11:28:53;;;;;;;65.87;21.00;;;;;;;;;;5050673;28;20034;-92
2021/11/16 11:31:28;;;;;;;70.13;23.00;;;;;;;;;;5037843;28;20033;-90
2021/11/16 11:33:54;;;;;;;64.00;21.03;;;;;;;;;;5050044;28;20400;-91
2021/11/16 11:36:20;;;;;;;66.03;21.77;;;;;;;;;;5044002;28;20104;-91
2021/11/16 11:38:46;;;;;;;64.17;21.43;;;;;;;;;;5051515;28;20025;-91
2021/11/16 11:41:11;;;;;;;72.07;23.33;;;;;;;;;;5054422;28;20079;-91
2021/11/16 11:43:36;;;;;;;73.27;24.77;;;;;;;;;;5054396;28;20028;-90
2021/11/16 11:46:01;;;;;;;70.00;22.40;;;;;;;;;;5054355;28;20036;-90
2021/11/16 11:48:27;;;;;;;76.40;23.57;;;;;;;;;;5054540;28;20025;-90
2021/11/16 11:50:56;;;;;;;67.50;21.53;;;;;;;;;;5036728;28;20342;-91
2021/11/16 11:53:23;;;;;;;61.10;22.27;;;;;;;;;;5045293;28;20111;-91
2021/11/16 11:55:50;;;;;;;62.87;21.03;;;;;;;;;;5051231;28;20032;-91
2021/11/16 11:58:17;;;;;;;62.00;21.63;;;;;;;;;;5035253;28;20029;-91
2021/11/16 12:00:44;;;;;;;60.73;20.10;;;;;;;;;;5034248;28;20022;-91
2021/11/16 12:03:10;;;;;;;59.27;20.23;;;;;;;;;;5043054;28;20115;-90
2021/11/16 12:05:36;;;;;;;68.23;21.53;;;;;;;;;;5040790;28;20381;-90
2021/11/16 12:08:02;;;;;;;60.23;20.47;;;;;;;;;;5048661;28;20032;-91
2021/11/16 12:10:27;;;;;;;64.40;20.00;;;;;;;;;;5046059;28;20435;-91
2021/11/16 12:12:53;;;;;;;66.50;20.57;;;;;;;;;;5045713;28;20366;-91
2021/11/16 12:15:22;;;;;;;58.53;19.17;;;;;;;;;;5053880;28;20021;-91
2021/11/16 12:17:48;;;;;;;62.07;19.07;;;;;;;;;;5054691;28;20032;-91
2021/11/16 12:20:32;;;;;;;61.33;19.63;;;;;;;;;;5047760;28;20033;-91
2021/11/16 12:22:57;;;;;;;62.73;20.23;;;;;;;;;;5040877;28;20013;-91
2021/11/16 12:25:23;;;;;;;64.93;20.17;;;;;;;;;;5037351;28;20025;-90
2021/11/16 12:27:48;;;;;;;63.87;20.73;;;;;;;;;;5044517;28;20025;-91
2021/11/16 12:30:19;;;;;;;58.00;19.43;;;;;;;;;;5038280;28;20018;-91
2021/11/16 12:32:51;;;;;;;58.60;20.90;;;;;;;;;;5042893;28;20361;-91
2021/11/16 12:35:18;;;;;;;59.25;19.77;;;;;;;;;;5038376;28;20076;-91
2021/11/16 12:37:46;;;;;;;57.33;20.00;;;;;;;;;;5033879;28;20068;-91
2021/11/16 12:40:18;;;;;;;60.27;19.33;;;;;;;;;;5048114;28;20025;-91
2021/11/16 12:43:02;;;;;;;60.65;18.83;;;;;;;;;;5054700;28;20028;-91
2021/11/16 12:45:46;;;;;;;56.27;17.63;;;;;;;;;;5041582;28;20431;-91
2021/11/16 12:48:12;;;;;;;58.37;19.73;;;;;;;;;;5033468;28;20025;-89
2021/11/16 12:50:38;;;;;;;59.07;18.23;;;;;;;;;;5033273;28;20117;-91
2021/11/16 12:53:03;;;;;;;59.37;18.77;;;;;;;;;;5032923;28;20053;-91
2021/11/16 12:55:30;;;;;;;64.33;20.73;;;;;;;;;;5042116;28;20017;-91
2021/11/16 12:57:57;;;;;;;56.97;17.30;;;;;;;;;;5040064;28;20013;-91
2021/11/16 13:00:36;;;;;;;63.47;19.43;;;;;;;;;;5054479;28;20025;-92
2021/11/16 13:03:03;;;;;;;56.83;19.17;;;;;;;;;;5026697;28;20358;-92
2021/11/16 13:05:33;;;;;;;55.20;19.07;;;;;;;;;;5040401;28;20029;-90
2021/11/16 13:08:00;;;;;;;55.20;19.00;;;;;;;;;;5049061;28;20017;-91
2021/11/16 13:10:45;;;;;;;61.37;19.23;;;;;;;;;;5033058;28;20093;-91
2021/11/16 13:13:22;;;;;;;61.90;18.63;;;;;;;;;;5033556;28;20039;-91
2021/11/16 13:15:49;;;;;;;57.47;19.43;;;;;;;;;;5052726;28;20017;-91
2021/11/16 13:18:20;;;;;;;61.60;20.37;;;;;;;;;;5052728;28;20047;-91
2021/11/16 13:20:47;;;;;;;61.97;18.80;;;;;;;;;;5052851;28;20021;-91
2021/11/16 13:23:12;;;;;;;62.53;21.40;;;;;;;;;;5038801;28;20028;-91
2021/11/16 13:25:40;;;;;;;63.37;19.17;;;;;;;;;;5036794;28;20021;-90
2021/11/16 13:28:07;;;;;;;54.07;18.47;;;;;;;;;;5041806;28;20021;-90
2021/11/16 13:30:32;;;;;;;60.30;19.73;;;;;;;;;;5037469;28;20013;-90
2021/11/16 13:32:58;;;;;;;68.87;20.50;;;;;;;;;;5042723;28;20063;-90
2021/11/16 13:35:23;;;;;;;63.00;20.83;;;;;;;;;;5035581;28;20044;-90
2021/11/16 13:37:52;;;;;;;60.67;20.70;;;;;;;;;;5047886;28;20005;-91
2021/11/16 13:40:22;;;;;;;58.63;19.67;;;;;;;;;;5032680;28;20472;-90
2021/11/16 13:42:50;;;;;;;55.03;18.90;;;;;;;;;;5040568;28;20480;-90
2021/11/16 13:45:15;;;;;;;53.23;19.00;;;;;;;;;;5038330;28;20040;-90
2021/11/16 13:47:43;;;;;;;55.90;19.63;;;;;;;;;;5046369;28;20473;-90
2021/11/16 13:50:20;;;;;;;53.13;19.03;;;;;;;;;;5032522;28;20049;-90
2021/11/16 13:52:47;;;;;;;56.47;18.13;;;;;;;;;;5032943;28;20473;-91
2021/11/16 13:55:19;;;;;;;54.07;19.33;;;;;;;;;;5040315;28;20072;-91
2021/11/16 13:57:46;;;;;;;50.67;18.30;;;;;;;;;;5051200;28;20059;-91
2021/11/16 14:00:20;;;;;;;57.37;17.33;;;;;;;;;;5046639;28;20024;-91
2021/11/16 14:02:55;;;;;;;63.70;21.37;;;;;;;;;;5034000;28;20064;-91
2021/11/16 14:05:22;;;;;;;58.33;19.90;;;;;;;;;;5035449;28;20021;-90
2021/11/16 14:07:52;;;;;;;52.83;18.50;;;;;;;;;;5037537;28;20025;-91
2021/11/16 14:10:17;;;;;;;51.60;18.40;;;;;;;;;;5045051;28;20112;-91
2021/11/16 14:12:44;;;;;;;53.17;18.27;;;;;;;;;;5049823;28;20059;-91
2021/11/16 14:15:14;;;;;;;50.70;18.10;;;;;;;;;;5044531;28;20059;-91
2021/11/16 14:17:39;;;;;;;50.90;17.63;;;;;;;;;;5055534;28;20176;-90
2021/11/16 14:20:05;;;;;;;52.83;17.77;;;;;;;;;;5043203;28;20080;-89
2021/11/16 14:22:37;;;;;;;45.80;16.97;;;;;;;;;;5043352;28;20535;-91
2021/11/16 14:25:13;;;;;;;47.35;16.38;;;;;;;;;;5055723;28;20036;-91
2021/11/16 14:27:38;;;;;;;47.97;17.37;;;;;;;;;;5048966;28;20422;-91